createdAt,value
2024-01-03T00:18:40.280Z,99007.34
2024-01-03T00:21:12.862Z,99014.91
2024-01-03T00:23:53.240Z,99014.06
2024-01-03T00:26:21.296Z,99018.31
2024-01-03T00:28:48.988Z,99014.00
2024-01-03T00:31:47.786Z,99010.56
2024-01-03T00:34:25.384Z,99004.66
2024-01-03T00:36:54.697Z,99017.16
2024-01-03T00:39:34.657Z,99018.91
2024-01-03T00:42:05.637Z,98984.16
2024-01-03T00:44:33.051Z,98990.03
2024-01-03T00:47:01.411Z,98980.03
2024-01-03T00:49:29.038Z,99004.59
2024-01-03T01:51:47.059Z,98975.09
2024-01-03T02:10:05.026Z,98980.03
2024-01-03T02:12:40.801Z,98986.75
2024-01-03T02:15:08.733Z,98988.50
2024-01-03T02:17:42.719Z,98970.59
2024-01-03T02:20:13.543Z,98990.13
2024-01-03T02:22:40.907Z,99010.34
2024-01-03T02:25:12.719Z,99003.53
2024-01-03T02:27:40.773Z,99016.09
2024-01-03T03:09:16.926Z,99001.31
2024-01-03T03:11:48.027Z,99008.03
2024-01-03T03:14:17.182Z,98977.59
2024-01-03T03:16:45.513Z,98974.28
2024-01-03T03:19:14.435Z,98983.59
2024-01-03T03:21:42.226Z,99000.38
2024-01-03T03:24:09.682Z,98981.03
2024-01-03T03:26:37.162Z,99001.28
2024-01-03T03:29:04.488Z,98986.03
2024-01-03T03:31:31.946Z,98998.69
2024-01-03T03:34:00.235Z,99005.44
2024-01-03T03:36:27.794Z,99040.03
2024-01-03T03:38:56.136Z,99034.91
2024-01-03T03:41:24.809Z,99014.63
2024-01-03T03:43:52.285Z,99001.00
2024-01-03T04:04:39.150Z,99032.75
2024-01-03T04:07:07.689Z,99010.72
2024-01-03T04:09:38.590Z,99042.97
2024-01-03T04:32:37.701Z,99032.28
2024-01-03T04:35:06.365Z,99038.75
2024-01-03T04:37:34.759Z,99032.88
2024-01-03T05:08:33.393Z,99022.19
2024-01-03T05:11:05.609Z,99042.28
2024-01-03T05:13:33.084Z,99068.41
2024-01-03T05:16:04.602Z,99036.38
2024-01-03T05:18:32.059Z,99033.06
2024-01-03T05:20:59.468Z,99056.69
2024-01-03T05:23:27.481Z,99042.84
2024-01-03T05:25:54.913Z,99053.00
2024-01-03T05:28:22.748Z,99051.25
2024-01-03T05:30:50.262Z,99031.16
2024-01-03T05:33:18.996Z,99076.88
2024-01-03T05:35:49.030Z,99032.09
2024-01-03T05:38:26.929Z,99059.84
2024-01-03T05:40:54.778Z,99067.50
2024-01-03T05:43:25.465Z,99030.97
2024-01-03T05:45:52.864Z,99048.72
2024-01-03T05:48:22.478Z,99039.53
2024-01-03T05:50:49.972Z,99054.84
2024-01-03T05:53:17.450Z,99044.88
2024-01-03T05:55:45.241Z,99051.81
2024-01-03T05:58:14.808Z,99018.03
2024-01-03T06:00:42.317Z,99042.63
2024-01-03T06:03:10.342Z,99047.56
2024-01-03T06:05:40.586Z,99044.19
2024-01-03T06:08:08.960Z,99041.59
2024-01-03T06:10:36.560Z,99043.97
2024-01-03T06:13:04.025Z,99048.06
2024-01-03T06:15:31.341Z,99032.00
2024-01-03T06:18:06.493Z,99046.44
2024-01-03T06:20:34.076Z,99043.81
2024-01-03T06:23:03.204Z,99037.06
2024-01-03T06:25:32.505Z,99044.81
2024-01-03T06:28:03.040Z,99061.75
2024-01-03T06:30:31.367Z,99044.03
2024-01-03T06:32:58.790Z,99074.41
2024-01-03T06:35:26.388Z,99038.81
2024-01-03T06:37:59.162Z,99068.41
2024-01-03T06:40:26.321Z,99062.59
2024-01-03T06:42:53.619Z,99077.13
2024-01-03T06:45:20.892Z,99069.56
2024-01-03T06:47:48.996Z,99078.06
2024-01-03T06:50:16.764Z,99062.13
2024-01-03T06:52:44.255Z,99064.84
2024-01-03T06:55:11.791Z,99063.03
2024-01-03T06:57:39.115Z,99059.81
2024-01-03T07:00:07.350Z,99053.03
2024-01-03T07:02:36.889Z,99070.78
2024-01-03T07:05:04.621Z,99047.00
2024-01-03T07:07:34.191Z,99079.41
2024-01-03T07:10:01.592Z,99062.44
2024-01-03T07:12:29.149Z,99039.78
2024-01-03T07:14:57.728Z,99056.72
2024-01-03T07:17:25.166Z,99038.19
2024-01-03T07:19:52.781Z,99047.50
2024-01-03T07:22:20.747Z,99058.59
2024-01-03T07:24:48.582Z,99057.81
2024-01-03T07:27:16.535Z,99051.13
2024-01-03T07:29:43.985Z,99056.19
2024-01-03T07:32:12.449Z,99054.56
2024-01-03T07:34:39.828Z,99041.94
2024-01-03T07:37:07.472Z,99048.75
2024-01-03T07:39:35.018Z,99035.22
2024-01-03T07:42:08.324Z,99039.31
2024-01-03T07:44:43.448Z,99046.91
2024-01-03T07:47:14.054Z,99029.13
2024-01-03T07:49:44.214Z,99042.69
2024-01-03T07:52:11.562Z,99059.75
2024-01-03T07:54:39.048Z,99059.75
2024-01-03T07:57:08.802Z,99045.38
2024-01-03T07:59:36.273Z,99054.56
2024-01-03T08:02:03.783Z,99036.03
2024-01-03T08:04:31.126Z,99040.28
2024-01-03T08:07:01.846Z,99049.44
2024-01-03T08:09:34.268Z,99043.53
2024-01-03T08:12:02.716Z,99068.91
2024-01-03T08:14:38.154Z,99056.19
2024-01-03T08:17:13.683Z,99045.19
2024-01-03T08:19:43.740Z,99051.19
2024-01-03T08:22:11.233Z,99027.41
2024-01-03T08:24:40.357Z,99021.53
2024-01-03T08:27:09.245Z,99024.09
2024-01-03T08:29:40.384Z,99034.31
2024-01-03T08:32:10.413Z,99025.84
2024-01-03T08:34:41.059Z,99032.66
2024-01-03T08:37:09.198Z,99025.97
2024-01-03T08:39:36.583Z,99041.31
2024-01-03T08:42:06.902Z,99023.44
2024-01-03T08:44:36.857Z,99013.25
2024-01-03T08:47:04.461Z,99015.91
2024-01-03T08:49:31.911Z,99018.47
2024-01-03T08:51:59.389Z,99006.72
2024-01-03T08:54:27.330Z,99014.53
2024-01-03T08:56:55.148Z,98991.78
2024-01-03T08:59:22.632Z,99021.44
2024-01-03T09:01:59.551Z,99024.81
2024-01-03T09:04:26.796Z,99011.28
2024-01-03T09:06:56.485Z,99003.66
2024-01-03T09:09:24.069Z,99007.00
2024-01-03T09:11:52.429Z,99013.81
2024-01-03T09:14:23.501Z,99003.69
2024-01-03T09:16:52.390Z,99021.47
2024-01-03T09:19:20.317Z,99014.66
2024-01-03T09:21:50.380Z,99008.72
2024-01-03T09:24:19.445Z,99014.69
2024-01-03T09:26:51.366Z,99003.66
2024-01-03T09:29:23.375Z,99001.09
2024-01-03T09:31:51.215Z,99009.63
2024-01-03T09:34:21.737Z,99016.41
2024-01-03T09:36:49.181Z,98982.53
2024-01-03T09:39:22.399Z,99000.34
2024-01-03T09:41:58.417Z,99003.66
2024-01-03T09:44:28.333Z,98970.78
2024-01-03T09:46:55.667Z,98994.44
2024-01-03T09:49:23.362Z,98989.31
2024-01-03T09:51:53.040Z,98997.88
2024-01-03T09:54:25.249Z,98986.81
2024-01-03T09:56:55.497Z,99001.22
2024-01-03T09:59:23.812Z,98990.19
2024-01-03T10:02:00.992Z,98974.13
2024-01-03T10:04:32.506Z,98969.16
2024-01-03T10:07:04.555Z,98969.16
2024-01-03T10:09:50.076Z,98957.31
2024-01-03T10:12:25.062Z,98953.88
2024-01-03T10:14:53.680Z,98964.13
2024-01-03T10:17:23.484Z,98970.03
2024-01-03T10:19:51.009Z,98994.59
2024-01-03T10:22:21.983Z,98969.19
2024-01-03T10:24:50.555Z,98996.31
2024-01-03T10:27:20.758Z,98979.38
2024-01-03T10:29:52.467Z,98992.09
2024-01-03T10:32:19.974Z,98979.41
2024-01-03T10:34:47.330Z,98958.22
2024-01-03T10:37:18.102Z,98971.81
2024-01-03T10:39:48.521Z,98965.03
2024-01-03T10:42:15.869Z,98969.31
2024-01-03T10:45:03.090Z,98949.03
2024-01-03T10:47:49.626Z,98969.38
2024-01-03T10:50:17.209Z,98960.97
2024-01-03T10:52:48.653Z,98961.75
2024-01-03T10:55:25.689Z,98952.44
2024-01-03T10:58:02.142Z,98950.75
2024-01-03T11:00:48.943Z,98937.22
2024-01-03T11:03:30.007Z,98944.84
2024-01-03T11:06:36.583Z,98954.19
2024-01-03T11:09:04.509Z,98966.03
2024-01-03T11:11:49.131Z,98971.94
2024-01-03T11:14:26.433Z,98953.22
2024-01-03T11:16:53.887Z,98939.69
2024-01-03T11:19:34.851Z,98946.47
2024-01-03T11:22:07.963Z,98947.34
2024-01-03T11:24:35.322Z,98956.69
2024-01-03T11:27:06.958Z,98960.91
2024-01-03T11:29:43.787Z,98960.09
2024-01-03T11:32:17.538Z,98974.50
2024-01-03T11:34:49.760Z,98932.09
2024-01-03T11:37:20.862Z,98957.59
2024-01-03T11:39:52.282Z,98951.66
2024-01-03T11:42:47.108Z,98960.13
2024-01-03T11:45:17.679Z,98945.72
2024-01-03T11:47:47.541Z,98938.94
2024-01-03T11:50:19.071Z,98949.13
2024-01-03T11:52:51.092Z,98949.09
2024-01-03T11:55:22.653Z,98955.84
2024-01-03T11:57:53.784Z,98945.72
2024-01-03T12:00:23.295Z,98936.41
2024-01-03T12:03:00.877Z,98943.16
2024-01-03T12:05:29.342Z,98946.56
2024-01-03T12:08:02.875Z,98910.97
2024-01-03T12:10:36.934Z,98943.16
2024-01-03T12:13:04.640Z,98943.19
2024-01-03T12:15:42.688Z,98931.31
2024-01-03T12:18:16.594Z,98963.50
2024-01-03T12:20:46.031Z,98925.41
2024-01-03T12:23:22.521Z,98927.97
2024-01-03T12:25:54.497Z,98930.41
2024-01-03T12:28:40.953Z,98942.91
2024-01-03T12:31:21.974Z,98922.53
2024-01-03T12:34:09.047Z,98934.53
2024-01-03T12:36:36.677Z,98941.50
2024-01-03T12:39:05.146Z,98943.19
2024-01-03T12:41:42.473Z,98938.97
2024-01-03T12:44:10.545Z,98942.31
2024-01-03T12:46:43.641Z,98939.75
2024-01-03T12:49:28.667Z,98922.75
2024-01-03T12:51:57.574Z,98929.50
2024-01-03T12:54:27.641Z,98922.75
2024-01-03T12:57:03.638Z,98923.59
2024-01-03T12:59:35.540Z,98919.31
2024-01-03T13:02:03.839Z,98932.84
2024-01-03T13:04:46.839Z,98943.81
2024-01-03T13:07:31.918Z,98926.84
2024-01-03T13:10:17.462Z,98933.59
2024-01-03T13:13:13.375Z,98925.13
2024-01-03T13:15:43.946Z,98939.53
2024-01-03T13:18:32.168Z,98959.00
2024-01-03T13:21:06.491Z,98942.09
2024-01-03T13:23:34.187Z,98931.09
2024-01-03T13:26:07.187Z,98943.81
2024-01-03T13:28:34.619Z,98965.84
2024-01-03T13:31:31.047Z,98925.19
2024-01-03T13:34:06.556Z,98941.28
2024-01-03T13:36:34.223Z,98965.84
2024-01-03T13:39:06.931Z,98919.22
2024-01-03T13:41:54.123Z,98945.47
2024-01-03T13:44:41.874Z,98949.75
2024-01-03T13:47:53.350Z,98945.44
2024-01-03T13:50:29.039Z,98932.75
2024-01-03T13:53:38.402Z,98952.19
2024-01-03T13:56:11.350Z,98938.66
2024-01-03T13:58:51.243Z,98944.63
2024-01-03T14:01:37.807Z,98954.69
2024-01-03T14:04:13.692Z,98943.69
2024-01-03T14:07:05.437Z,98944.56
2024-01-03T14:09:46.944Z,98951.38
2024-01-03T14:12:26.382Z,98937.81
2024-01-03T14:15:00.051Z,98960.69
2024-01-03T14:17:32.651Z,98937.00
2024-01-03T14:20:14.337Z,98963.25
2024-01-03T14:22:49.922Z,98942.81
2024-01-03T14:25:26.976Z,98941.13
2024-01-03T14:30:51.916Z,98946.13
2024-01-03T14:33:39.746Z,98943.53
2024-01-03T14:37:19.110Z,98952.00
2024-01-03T14:39:49.401Z,98940.91
2024-01-03T14:42:20.217Z,98927.31
2024-01-03T14:44:58.468Z,98918.00
2024-01-03T14:47:31.892Z,98955.28
2024-01-03T14:49:59.725Z,98947.56
2024-01-03T14:52:28.282Z,98944.19
2024-01-03T14:54:57.508Z,98914.53
2024-01-03T14:57:25.094Z,98928.09
2024-01-03T14:59:53.504Z,98921.31
2024-01-03T15:02:24.226Z,98928.09
2024-01-03T15:04:55.989Z,98950.16
2024-01-03T15:07:27.974Z,98957.78
2024-01-03T15:09:56.156Z,98958.59
2024-01-03T15:12:29.023Z,98950.13
2024-01-03T15:15:02.394Z,98930.56
2024-01-03T15:17:32.303Z,98922.97
2024-01-03T15:20:06.703Z,98947.59
2024-01-03T15:22:34.336Z,98950.16
2024-01-03T15:25:05.528Z,98917.13
2024-01-03T15:27:36.923Z,98934.84
2024-01-03T15:30:05.610Z,98913.66
2024-01-03T15:32:35.756Z,98919.59
2024-01-03T15:35:05.471Z,98901.00
2024-01-03T15:37:42.647Z,98912.03
2024-01-03T15:40:16.184Z,98909.41
2024-01-03T15:42:46.141Z,98893.28
2024-01-03T15:45:19.575Z,98900.84
2024-01-03T15:47:50.576Z,98889.00
2024-01-03T15:50:19.790Z,98909.28
2024-01-03T15:52:52.183Z,98885.63
2024-01-03T15:55:27.504Z,98907.50
2024-01-03T15:57:55.356Z,98888.09
2024-01-03T16:00:22.758Z,98888.94
2024-01-03T16:02:50.328Z,98890.63
2024-01-03T16:05:23.340Z,98888.09
2024-01-03T16:07:51.434Z,98921.06
2024-01-03T16:10:19.313Z,98880.53
2024-01-03T16:12:46.764Z,98888.09
2024-01-03T16:15:14.682Z,98896.66
2024-01-03T16:17:44.553Z,98886.44
2024-01-03T16:20:18.186Z,98875.50
2024-01-03T16:22:45.859Z,98902.50
2024-01-03T16:25:13.291Z,98872.91
2024-01-03T16:27:46.471Z,98875.41
2024-01-03T16:30:16.784Z,98888.09
2024-01-03T16:32:45.297Z,98881.31
2024-01-03T16:35:14.413Z,98890.53
2024-01-03T16:37:44.899Z,98883.81
2024-01-03T16:40:14.427Z,98897.28
2024-01-03T16:42:45.340Z,98879.63
2024-01-03T16:45:14.530Z,98897.28
2024-01-03T16:47:44.778Z,98889.59
2024-01-03T16:50:13.004Z,98892.13
2024-01-03T16:52:42.711Z,98884.47
2024-01-03T16:55:11.333Z,98860.75
2024-01-03T16:57:41.229Z,98889.53
2024-01-03T17:00:12.384Z,98878.63
2024-01-03T17:02:44.207Z,98871.78
2024-01-03T17:05:12.575Z,98883.63
2024-01-03T17:07:42.416Z,98875.16
2024-01-03T17:10:10.295Z,98859.06
2024-01-03T17:12:38.004Z,98860.66
2024-01-03T17:15:07.782Z,98874.16
2024-01-03T17:17:38.422Z,98884.19
2024-01-03T17:20:11.068Z,98860.56
2024-01-03T17:22:42.662Z,98885.94
2024-01-03T17:25:13.290Z,98859.66
2024-01-03T17:27:40.927Z,98872.28
2024-01-03T17:30:14.706Z,98886.72
2024-01-03T17:32:43.615Z,98886.66
2024-01-03T17:35:11.485Z,98876.44
2024-01-03T17:37:38.926Z,98911.97
2024-01-03T17:40:06.882Z,98889.13
2024-01-03T17:42:35.786Z,98868.78
2024-01-03T17:45:06.790Z,98877.94
2024-01-03T17:47:39.183Z,98862.09
2024-01-03T17:50:10.807Z,98872.19
2024-01-03T17:52:38.606Z,98880.59
2024-01-03T17:55:09.446Z,98856.81
2024-01-03T17:57:40.190Z,98878.00
2024-01-03T18:00:10.189Z,98861.06
2024-01-03T18:02:39.594Z,98845.88
2024-01-03T18:05:08.136Z,98850.06
2024-01-03T18:07:46.583Z,98868.66
2024-01-03T18:10:13.880Z,98872.19
2024-01-03T18:12:42.426Z,98845.00
2024-01-03T18:15:10.354Z,98856.13
2024-01-03T18:17:43.067Z,98862.81
2024-01-03T18:20:14.178Z,98855.16
2024-01-03T18:22:48.050Z,98833.13
2024-01-03T18:25:25.321Z,98825.53
2024-01-03T18:27:54.203Z,98843.34
2024-01-03T18:30:22.055Z,98835.72
2024-01-03T18:32:54.052Z,98840.78
2024-01-03T18:35:21.385Z,98858.53
2024-01-03T18:37:49.348Z,98879.69
2024-01-03T18:40:16.800Z,98860.28
2024-01-03T18:42:44.754Z,98848.38
2024-01-03T18:45:13.965Z,98861.91
2024-01-03T18:47:47.022Z,98855.16
2024-01-03T18:50:14.480Z,98862.75
2024-01-03T18:52:44.543Z,98863.53
2024-01-03T18:55:16.034Z,98856.63
2024-01-03T18:57:43.367Z,98855.94
2024-01-03T19:00:12.107Z,98856.69
2024-01-03T19:02:39.967Z,98851.63
2024-01-03T19:05:10.985Z,98844.75
2024-01-03T19:07:38.705Z,98842.34
2024-01-03T19:10:07.558Z,98862.59
2024-01-03T19:12:37.258Z,98849.88
2024-01-03T19:15:07.894Z,98858.25
2024-01-03T19:17:35.907Z,98875.19
2024-01-03T19:20:05.198Z,98855.84
2024-01-03T19:22:37.712Z,98842.25
2024-01-03T19:25:08.315Z,98866.44
2024-01-03T19:27:41.295Z,98837.56
2024-01-03T19:30:11.409Z,98856.22
2024-01-03T19:32:44.425Z,98862.13
2024-01-03T19:35:14.916Z,98851.03
2024-01-03T19:37:42.339Z,98855.00
2024-01-03T19:40:12.189Z,98845.66
2024-01-03T19:42:40.533Z,98838.19
2024-01-03T19:45:11.516Z,98835.56
2024-01-03T19:47:42.852Z,98853.38
2024-01-03T19:50:14.089Z,98840.81
2024-01-03T19:52:41.455Z,98851.81
2024-01-03T19:55:11.162Z,98837.50
2024-01-03T19:57:41.950Z,98848.59
2024-01-03T20:00:10.225Z,98824.03
2024-01-03T20:02:37.828Z,98841.75
2024-01-03T20:05:05.599Z,98818.22
2024-01-03T20:07:37.370Z,98814.03
2024-01-03T20:10:05.428Z,98822.47
2024-01-03T20:12:40.321Z,98832.44
2024-01-03T20:15:12.607Z,98807.81
2024-01-03T20:17:42.881Z,98802.69
2024-01-03T20:20:10.548Z,98858.44
2024-01-03T20:22:41.438Z,98825.56
2024-01-03T20:25:10.199Z,98829.06
2024-01-03T20:27:42.980Z,98846.81
2024-01-03T20:30:14.875Z,98833.41
2024-01-03T20:32:43.195Z,98848.59
2024-01-03T20:35:14.362Z,98837.63
2024-01-03T20:37:43.224Z,98826.59
2024-01-03T20:40:13.735Z,98824.22
2024-01-03T20:42:43.705Z,98816.44
2024-01-03T20:45:18.595Z,98808.91
2024-01-03T20:47:46.509Z,98807.19
2024-01-03T20:50:16.612Z,98827.53
2024-01-03T20:52:44.322Z,98806.47
2024-01-03T20:55:16.924Z,98814.16
2024-01-03T20:57:44.604Z,98812.22
2024-01-03T21:00:18.042Z,98806.06
2024-01-03T21:02:45.666Z,98810.25
2024-01-03T21:05:19.201Z,98819.53
2024-01-03T21:07:46.894Z,98803.47
2024-01-03T21:10:16.576Z,98808.31
2024-01-03T21:12:43.864Z,98811.75
2024-01-03T21:15:13.728Z,98804.47
2024-01-03T21:17:41.399Z,98816.25
2024-01-03T21:20:18.734Z,98805.16
2024-01-03T21:22:46.194Z,98831.31
2024-01-03T21:25:14.449Z,98793.28
2024-01-03T21:27:47.167Z,98805.22
2024-01-03T21:30:19.040Z,98806.00
2024-01-03T21:32:49.504Z,98801.94
2024-01-03T21:35:16.784Z,98803.66
2024-01-03T21:37:44.111Z,98818.00
2024-01-03T21:40:12.317Z,98801.88
2024-01-03T21:42:43.645Z,98800.81
2024-01-03T21:45:11.511Z,98803.13
2024-01-03T21:47:41.855Z,98766.81
2024-01-03T21:50:11.011Z,98795.50
2024-01-03T21:52:41.839Z,98790.31
2024-01-03T21:55:09.468Z,98784.38
2024-01-03T21:57:40.238Z,98795.28
2024-01-03T22:00:08.168Z,98785.03
2024-01-03T22:02:39.136Z,98782.50
2024-01-03T22:05:09.934Z,98800.31
2024-01-03T22:07:37.353Z,98784.34
2024-01-03T22:10:05.080Z,98780.13
2024-01-03T22:12:32.439Z,98786.00
2024-01-03T22:15:00.228Z,98768.28
2024-01-03T22:17:31.206Z,98783.56
2024-01-03T22:19:59.747Z,98768.19
2024-01-03T22:22:29.762Z,98795.28
2024-01-03T22:24:57.821Z,98806.16
2024-01-03T22:27:24.990Z,98789.22
2024-01-03T22:29:53.381Z,98773.25
2024-01-03T22:32:20.501Z,98797.09
2024-01-03T22:34:47.939Z,98787.00
2024-01-03T22:37:16.646Z,98793.53
2024-01-03T22:39:46.500Z,98765.59
2024-01-03T22:42:13.932Z,98797.94
2024-01-03T22:44:43.942Z,98772.56
2024-01-03T22:47:11.240Z,98775.00
2024-01-03T22:49:39.419Z,98766.88
2024-01-03T22:52:10.387Z,98778.59
2024-01-03T22:54:37.699Z,98783.88
2024-01-03T22:57:05.328Z,98781.38
2024-01-03T22:59:33.417Z,98757.63
2024-01-03T23:02:00.810Z,98771.19
2024-01-03T23:04:30.039Z,98761.03
2024-01-03T23:07:00.557Z,98768.75
2024-01-03T23:09:28.940Z,98757.59
2024-01-03T23:11:56.194Z,98772.94
2024-01-03T23:14:24.745Z,98775.28
2024-01-03T23:16:52.327Z,98786.09
2024-01-03T23:19:21.480Z,98786.03
2024-01-03T23:21:49.084Z,98777.63
2024-01-03T23:24:16.501Z,98778.44
2024-01-03T23:26:52.282Z,98802.09
2024-01-03T23:29:22.572Z,98770.75
2024-01-03T23:31:54.229Z,98764.09
2024-01-03T23:34:23.622Z,98746.38
2024-01-03T23:36:50.931Z,98763.38
2024-01-03T23:39:19.245Z,98762.63
2024-01-03T23:41:49.201Z,98744.06
2024-01-03T23:44:16.517Z,98750.03
2024-01-03T23:46:44.493Z,98746.66
2024-01-03T23:49:14.891Z,98742.47
2024-01-03T23:51:44.315Z,98729.75
2024-01-03T23:54:11.932Z,98730.69
2024-01-03T23:56:39.350Z,98723.94
2024-01-03T23:59:06.750Z,98728.16
